createdAt,value
2018-08-16T00:03:06.886Z,98117.16
2018-08-16T00:08:00.016Z,98117.41
2018-08-16T00:12:53.337Z,98126.73
2018-08-16T00:17:46.484Z,98121.32
2018-08-16T00:22:39.760Z,98124.44
2018-08-16T00:27:32.809Z,98121.83
2018-08-16T00:32:25.931Z,98122.97
2018-08-16T00:37:19.114Z,98122.23
2018-08-16T00:42:12.173Z,98117.45
2018-08-16T00:47:05.343Z,98120.47
2018-08-16T00:51:58.436Z,98129.31
2018-08-16T00:56:51.567Z,98117.59
2018-08-16T01:01:44.618Z,98121.20
2018-08-16T01:06:37.597Z,98118.63
2018-08-16T01:11:30.755Z,98110.25
2018-08-16T01:16:23.735Z,98107.84
2018-08-16T01:21:16.906Z,98109.31
2018-08-16T01:26:09.981Z,98108.17
2018-08-16T01:31:03.167Z,98108.44
2018-08-16T01:35:56.339Z,98110.64
2018-08-16T01:40:49.351Z,98110.53
2018-08-16T01:45:42.461Z,98104.64
2018-08-16T01:50:35.519Z,98094.27
2018-08-16T01:55:28.440Z,98096.36
2018-08-16T02:00:21.452Z,98080.47
2018-08-16T02:05:14.539Z,98080.86
2018-08-16T02:10:08.087Z,98083.34
2018-08-16T02:15:01.211Z,98083.16
2018-08-16T02:19:54.214Z,98080.54
2018-08-16T02:24:47.212Z,98073.65
2018-08-16T02:29:40.188Z,98076.13
2018-08-16T02:34:33.306Z,98073.16
2018-08-16T02:39:26.289Z,98065.61
2018-08-16T02:44:19.306Z,98076.19
2018-08-16T02:49:12.390Z,98079.28
2018-08-16T02:54:05.522Z,98063.08
2018-08-16T02:58:58.805Z,98072.69
2018-08-16T03:03:51.754Z,98073.63
2018-08-16T03:08:44.722Z,98074.86
2018-08-16T03:13:37.910Z,98076.58
2018-08-16T03:18:30.953Z,98089.26
2018-08-16T03:23:24.088Z,98080.11
2018-08-16T03:28:17.054Z,98080.06
2018-08-16T03:33:10.317Z,98091.91
2018-08-16T03:38:03.434Z,98087.78
2018-08-16T03:42:57.491Z,98085.23
2018-08-16T03:47:50.627Z,98097.63
2018-08-16T03:52:43.588Z,98090.64
2018-08-16T03:57:36.675Z,98100.59
2018-08-16T04:02:29.838Z,98077.14
2018-08-16T04:07:22.941Z,98090.50
2018-08-16T04:12:15.854Z,98077.82
2018-08-16T04:17:08.956Z,98092.43
2018-08-16T04:22:02.230Z,98060.77
2018-08-16T04:26:55.174Z,98073.50
2018-08-16T04:31:48.140Z,98073.58
2018-08-16T04:36:42.116Z,98084.25
2018-08-16T04:41:35.283Z,98099.03
2018-08-16T04:46:28.307Z,98076.06
2018-08-16T04:51:21.257Z,98057.84
2018-08-16T04:56:14.378Z,98081.80
2018-08-16T05:01:07.617Z,98093.39
2018-08-16T05:06:00.683Z,98073.64
2018-08-16T05:10:53.618Z,98070.09
2018-08-16T05:15:46.628Z,98076.52
2018-08-16T05:20:39.788Z,98082.41
2018-08-16T05:25:32.727Z,98101.19
2018-08-16T05:30:25.828Z,98087.37
2018-08-16T06:12:52.155Z,98075.79
2018-08-16T06:17:45.378Z,98090.03
2018-08-16T06:22:39.037Z,98084.92
2018-08-16T06:27:31.992Z,98090.84
2018-08-16T06:32:24.973Z,98096.92
2018-08-16T06:37:18.080Z,98113.28
2018-08-16T06:42:11.133Z,98092.98
2018-08-16T06:47:04.244Z,98102.03
2018-08-16T06:51:57.396Z,98105.94
2018-08-16T06:56:50.417Z,98124.68
2018-08-16T07:01:43.542Z,98117.36
2018-08-16T07:06:36.752Z,98118.37
2018-08-16T07:11:29.704Z,98119.90
2018-08-16T07:16:23.110Z,98120.78
2018-08-16T07:21:16.136Z,98129.23
2018-08-16T07:26:09.168Z,98123.18
2018-08-16T07:31:02.428Z,98120.66
2018-08-16T07:35:56.554Z,98133.29
2018-08-16T07:40:49.623Z,98147.08
2018-08-16T07:45:43.079Z,98141.77
2018-08-16T07:50:35.962Z,98138.25
2018-08-16T07:55:29.090Z,98148.93
2018-08-16T08:00:22.171Z,98113.99
2018-08-16T08:05:15.126Z,98124.34
2018-08-16T08:10:08.918Z,98103.97
2018-08-16T08:15:01.947Z,98103.72
2018-08-16T08:19:55.038Z,98092.26
2018-08-16T08:24:48.026Z,98085.42
2018-08-16T08:29:41.382Z,98090.68
2018-08-16T08:34:34.320Z,98089.98
2018-08-16T08:39:27.425Z,98072.20
2018-08-16T08:44:23.423Z,98068.44
2018-08-16T08:49:16.641Z,98084.88
2018-08-16T08:54:20.716Z,98066.03
2018-08-16T08:59:13.700Z,98075.13
2018-08-16T09:04:06.831Z,98089.40
2018-08-16T09:08:59.860Z,98088.34
2018-08-16T09:14:05.205Z,98086.39
2018-08-16T09:18:58.562Z,98113.30
2018-08-16T09:23:51.518Z,98089.83
2018-08-16T09:28:44.518Z,98087.92
2018-08-16T09:33:48.518Z,98101.22
2018-08-16T09:38:42.552Z,98105.25
2018-08-16T09:43:47.179Z,98077.89
2018-08-16T09:48:43.558Z,98070.67
2018-08-16T09:53:36.632Z,98079.27
2018-08-16T09:58:29.714Z,98068.55
2018-08-16T10:03:22.662Z,98076.45
2018-08-16T10:08:15.647Z,98075.42
2018-08-16T10:13:08.629Z,98074.38
2018-08-16T10:18:01.584Z,98096.13
2018-08-16T10:22:54.527Z,98091.23
2018-08-16T10:27:47.594Z,98082.69
2018-08-16T10:32:40.515Z,98069.91
2018-08-16T10:37:33.579Z,98066.08
2018-08-16T10:42:39.730Z,98046.95
2018-08-16T10:47:32.771Z,98066.81
2018-08-16T10:52:25.843Z,98051.47
2018-08-16T10:57:19.046Z,98057.31
2018-08-16T11:02:12.098Z,98062.45
2018-08-16T11:07:05.206Z,98064.83
2018-08-16T11:11:58.183Z,98045.38
2018-08-16T11:16:51.308Z,98044.86
2018-08-16T11:21:44.348Z,98046.28
2018-08-16T11:26:37.482Z,98041.47
2018-08-16T11:31:30.450Z,98041.41
2018-08-16T11:36:23.586Z,98050.05
2018-08-16T11:41:16.745Z,98046.12
2018-08-16T11:46:09.730Z,98057.97
2018-08-16T11:51:02.657Z,98034.84
2018-08-16T11:55:55.679Z,98038.65
2018-08-16T12:00:49.252Z,98024.05
2018-08-16T12:05:42.258Z,98022.67
2018-08-16T12:10:35.336Z,98012.89
2018-08-16T12:15:28.392Z,98028.52
2018-08-16T12:20:21.738Z,98020.10
2018-08-16T12:25:14.803Z,98003.94
2018-08-16T12:30:09.069Z,98000.95
2018-08-16T12:35:02.238Z,98003.00
2018-08-16T12:39:55.220Z,98004.92
2018-08-16T12:44:48.408Z,98006.06
2018-08-16T12:49:41.638Z,98001.02
2018-08-16T12:54:34.727Z,97999.98
2018-08-16T12:59:28.041Z,97999.93
2018-08-16T13:04:21.023Z,97993.59
2018-08-16T13:09:14.512Z,97997.55
2018-08-16T13:14:08.256Z,97990.52
2018-08-16T13:19:01.482Z,97985.92
2018-08-16T13:23:54.820Z,97996.75
2018-08-16T13:28:48.296Z,97996.59
2018-08-16T13:33:41.921Z,97993.43
2018-08-16T13:38:35.197Z,97997.98
2018-08-16T13:43:28.190Z,97988.80
2018-08-16T13:48:21.968Z,97994.09
2018-08-16T13:53:15.313Z,97993.22
2018-08-16T13:58:09.527Z,97994.00
2018-08-16T14:03:02.811Z,97984.52
2018-08-16T14:07:57.618Z,97975.20
2018-08-16T14:12:50.722Z,97992.86
2018-08-16T14:17:43.835Z,97978.47
2018-08-16T14:22:37.260Z,97974.96
2018-08-16T14:27:30.302Z,97974.95
2018-08-16T14:32:23.499Z,97975.34
2018-08-16T14:37:16.651Z,97971.86
2018-08-16T14:42:09.766Z,97974.29
2018-08-16T14:47:05.306Z,97970.31
2018-08-16T14:51:58.378Z,97971.77
2018-08-16T14:56:51.487Z,97976.52
2018-08-16T15:01:44.852Z,97977.05
2018-08-16T15:06:39.190Z,97973.45
2018-08-16T15:11:32.342Z,97967.34
2018-08-16T15:16:27.697Z,97962.97
2018-08-16T15:21:20.801Z,97970.07
2018-08-16T15:26:27.144Z,97963.81
2018-08-16T15:31:20.391Z,97955.64
2018-08-16T15:36:18.999Z,97954.93
2018-08-16T15:41:12.264Z,97958.48
2018-08-16T15:46:15.265Z,97966.30
2018-08-16T15:51:08.521Z,97969.20
2018-08-16T15:56:01.671Z,97958.03
2018-08-16T16:00:54.720Z,97961.61
2018-08-16T16:05:49.134Z,97961.70
2018-08-16T16:10:42.692Z,97965.17
2018-08-16T16:15:36.077Z,97964.53
2018-08-16T16:20:29.187Z,97965.03
2018-08-16T16:25:22.313Z,97966.63
2018-08-16T16:30:20.680Z,97970.55
2018-08-16T16:35:13.992Z,97968.77
2018-08-16T16:40:08.744Z,97979.84
2018-08-16T16:45:02.126Z,97979.68
2018-08-16T16:49:59.605Z,97984.41
2018-08-16T16:54:53.019Z,97984.44
2018-08-16T16:59:46.302Z,97987.09
2018-08-16T17:04:39.444Z,97992.62
2018-08-16T17:09:32.485Z,97987.03
2018-08-16T17:14:25.650Z,97990.81
2018-08-16T17:19:19.166Z,98002.16
2018-08-16T17:24:12.251Z,98008.74
2018-08-16T17:29:06.755Z,98004.37
2018-08-16T17:33:59.945Z,98011.94
2018-08-16T17:38:53.134Z,98025.42
2018-08-16T17:43:46.237Z,98026.66
2018-08-16T17:48:39.325Z,98023.53
2018-08-16T17:53:32.646Z,98029.34
2018-08-16T17:58:29.949Z,98036.53
2018-08-16T18:03:22.996Z,98042.42
2018-08-16T18:08:16.280Z,98055.85
2018-08-16T18:13:09.721Z,98051.66
2018-08-16T18:18:02.908Z,98056.87
2018-08-16T18:22:56.070Z,98057.75
2018-08-16T18:27:49.292Z,98053.78
2018-08-16T18:32:43.191Z,98056.78
2018-08-16T18:37:36.304Z,98056.08
2018-08-16T18:42:29.589Z,98071.63
2018-08-16T18:47:22.858Z,98073.38
2018-08-16T18:52:15.920Z,98079.07
2018-08-16T18:57:09.916Z,98077.20
2018-08-16T19:02:03.925Z,98079.52
2018-08-16T19:06:58.017Z,98074.02
2018-08-16T19:11:51.090Z,98074.17
2018-08-16T19:16:44.318Z,98066.19
2018-08-16T19:21:37.393Z,98068.03
2018-08-16T19:26:30.364Z,98072.20
2018-08-16T19:31:23.728Z,98067.84
2018-08-16T19:36:17.244Z,98069.79
2018-08-16T19:41:10.388Z,98067.41
2018-08-16T19:46:03.634Z,98073.56
2018-08-16T19:50:56.699Z,98064.68
2018-08-16T19:55:50.024Z,98061.41
2018-08-16T20:00:43.107Z,98057.31
2018-08-16T20:05:36.134Z,98057.73
2018-08-16T20:10:29.199Z,98059.69
2018-08-16T20:15:22.344Z,98056.97
2018-08-16T20:20:15.332Z,98062.79
2018-08-16T20:25:09.321Z,98063.59
2018-08-16T20:30:02.486Z,98056.11
2018-08-16T20:34:55.578Z,98057.25
2018-08-16T20:39:48.523Z,98058.08
2018-08-16T20:44:42.004Z,98056.27
2018-08-16T20:49:35.054Z,98054.52
2018-08-16T20:54:28.140Z,98057.33
2018-08-16T20:59:21.154Z,98045.44
2018-08-16T21:04:14.609Z,98046.73
2018-08-16T21:09:08.921Z,98047.78
2018-08-16T21:14:02.204Z,98050.17
2018-08-16T21:18:55.815Z,98046.23
2018-08-16T21:23:49.888Z,98043.75
2018-08-16T21:28:43.878Z,98039.86
2018-08-16T21:33:37.564Z,98047.11
2018-08-16T21:38:31.271Z,98044.08
2018-08-16T21:43:24.595Z,98056.91
2018-08-16T21:48:18.126Z,98059.47
2018-08-16T21:53:11.201Z,98070.47
2018-08-16T21:58:04.146Z,98067.09
2018-08-16T22:02:57.284Z,98071.58
2018-08-16T22:08:08.842Z,98074.04
2018-08-16T22:13:01.856Z,98071.23
2018-08-16T22:17:54.893Z,98071.55
2018-08-16T22:22:48.120Z,98076.23
2018-08-16T22:27:41.053Z,98077.51
2018-08-16T22:32:34.183Z,98078.86
2018-08-16T22:37:27.174Z,98068.85
2018-08-16T22:42:20.689Z,98061.91
2018-08-16T22:47:13.690Z,98061.58
2018-08-16T22:52:06.611Z,98064.07
2018-08-16T22:56:59.810Z,98058.40
2018-08-16T23:01:52.811Z,98048.86
2018-08-16T23:06:45.807Z,98046.58
2018-08-16T23:11:39.071Z,98050.42
2018-08-16T23:16:32.122Z,98049.91
2018-08-16T23:21:25.139Z,98052.42
2018-08-16T23:26:18.193Z,98048.81
2018-08-16T23:31:11.259Z,98046.19
2018-08-16T23:36:04.394Z,98055.38
2018-08-16T23:40:57.454Z,98047.23
2018-08-16T23:45:50.569Z,98052.41
2018-08-16T23:50:43.712Z,98043.77
2018-08-16T23:55:38.073Z,98046.03
